Time;durP1;ratioP1;P1;durP2;ratioP2;P2;SDS_P1;SDS_P2;PMS_P1;PMS_P2;Temp;Humidity;BMP_temperature;BMP_pressure;BME280_temperature;BME280_humidity;BME280_pressure;Samples;Min_cycle;Max_cycle;Signal;HPM_P1;HPM_P2
2021/01/21 11:41:58;;;;;;;83.47;30.43;;;;;;;22.25;28.19;98647.15;1784241;78;23547;-49
2021/01/21 11:44:26;;;;;;;24.92;12.03;;;;;;;22.26;27.69;98650.88;1704190;81;24352;-58
2021/01/21 11:46:53;;;;;;;18.23;8.18;;;;;;;22.27;27.94;98644.33;1708895;81;61091;-50
2021/01/21 11:49:20;;;;;;;32.75;13.40;;;;;;;22.61;26.70;98636.86;1741668;81;21078;-54
2021/01/21 11:56:24;;;;;;;21.10;9.00;;;;;;;22.54;28.22;98627.13;1758190;79;25673;-46
2021/01/21 11:58:50;;;;;;;21.45;8.98;;;;;;;22.49;26.56;98627.58;1707154;80;25841;-45
2021/01/21 12:01:18;;;;;;;19.25;9.40;;;;;;;22.44;26.79;98610.72;1685380;84;28021;-49
2021/01/21 12:03:45;;;;;;;13.93;7.62;;;;;;;22.38;26.71;98608.00;1663525;81;64281;-47
2021/01/21 12:11:02;;;;;;;257.57;109.17;;;;;;;22.40;26.85;98588.88;3570771;75;77942;-47
2021/01/21 12:16:05;;;;;;;18.90;8.50;;;;;;;22.35;26.66;98593.17;3549504;82;26290;-56
2021/01/21 12:21:06;;;;;;;12.53;7.03;;;;;;;22.22;29.56;98588.89;3542079;80;99068;-56
2021/01/21 12:26:09;;;;;;;17.25;7.83;;;;;;;22.32;26.81;98580.28;3527503;78;101126;-57
2021/01/21 12:33:49;;;;;;;24.37;10.18;;;;;;;22.18;26.85;98584.70;3723235;76;34413;-56
2021/01/21 12:38:51;;;;;;;11.78;5.72;;;;;;;22.21;26.61;98575.09;3624812;78;99893;-58
2021/01/21 12:43:54;;;;;;;18.05;5.37;;;;;;;21.82;27.07;98564.28;3639856;78;98713;-59
2021/01/21 12:48:57;;;;;;;9.65;5.08;;;;;;;21.60;27.39;98565.50;3638122;78;99291;-58
2021/01/21 12:53:59;;;;;;;16.40;6.62;;;;;;;21.43;27.69;98561.59;3585514;78;98904;-51
2021/01/21 12:59:02;;;;;;;6.55;5.40;;;;;;;21.63;28.20;98559.41;3592415;79;26391;-49
2021/01/21 13:04:04;;;;;;;16.27;7.37;;;;;;;21.77;28.45;98543.59;3619299;79;25994;-54
2021/01/21 13:09:06;;;;;;;9.75;4.78;;;;;;;21.86;27.76;98546.21;3621173;80;72239;-48
2021/01/21 17:44:41;;;;;;;15.10;5.78;;;;;;;25.27;33.03;98570.23;3668884;75;71407;-50
2021/01/21 17:49:43;;;;;;;9.78;5.60;;;;;;;23.82;29.18;98566.36;3563786;80;26499;-48
2021/01/21 17:54:45;;;;;;;12.00;6.70;;;;;;;22.75;28.39;98582.38;3561355;80;25922;-62
2021/01/21 17:59:48;;;;;;;9.08;4.83;;;;;;;22.50;28.33;98573.49;3548116;80;27180;-51
2021/01/21 18:04:51;;;;;;;10.63;5.87;;;;;;;22.42;27.81;98571.68;3594630;79;46442;-56
2021/01/21 18:09:53;;;;;;;12.78;6.65;;;;;;;22.16;27.48;98574.75;3584253;80;26574;-52
2021/01/21 18:14:56;;;;;;;6.90;5.37;;;;;;;22.01;27.47;98580.83;3572646;80;25940;-58
2021/01/21 18:19:58;;;;;;;5.90;4.40;;;;;;;21.79;27.21;98576.59;3564480;80;25902;-57
2021/01/21 18:25:01;;;;;;;13.20;7.83;;;;;;;21.51;27.31;98576.98;3574884;80;25927;-58
2021/01/21 18:30:03;;;;;;;11.60;6.30;;;;;;;21.40;27.79;98563.05;3570088;81;26025;-52
2021/01/21 18:35:07;;;;;;;8.75;4.78;;;;;;;21.44;27.70;98553.69;3566256;81;26016;-54
2021/01/21 18:40:11;;;;;;;8.80;5.17;;;;;;;21.34;27.61;98545.44;3525156;81;25963;-54
2021/01/21 18:45:13;;;;;;;6.75;3.85;;;;;;;21.23;27.73;98547.53;3582978;78;25850;-58
2021/01/21 18:50:14;;;;;;;11.83;5.00;;;;;;;21.27;27.89;98556.59;3596482;80;26314;-60
2021/01/21 18:55:16;;;;;;;8.13;5.83;;;;;;;21.38;27.80;98555.05;3584413;80;25998;-47
2021/01/21 19:00:18;;;;;;;14.95;5.67;;;;;;;21.58;27.67;98565.60;3571612;79;26137;-48
2021/01/21 19:05:19;;;;;;;5.15;4.45;;;;;;;21.71;27.54;98559.85;3578267;79;25838;-48
2021/01/21 19:10:22;;;;;;;5.78;4.67;;;;;;;21.89;27.40;98556.95;3580746;79;30685;-47
2021/01/21 19:15:23;;;;;;;5.58;4.47;;;;;;;22.08;27.17;98562.64;3659922;80;25788;-47
2021/01/21 19:20:26;;;;;;;5.42;3.60;;;;;;;22.28;26.97;98556.33;3665386;80;31202;-63
2021/01/21 19:25:28;;;;;;;8.10;4.70;;;;;;;22.53;26.95;98561.72;3657238;80;25985;-52
2021/01/21 19:30:31;;;;;;;5.90;4.10;;;;;;;22.75;26.71;98559.86;3627801;80;26435;-48
2021/01/21 19:35:32;;;;;;;6.62;4.35;;;;;;;22.99;26.47;98552.23;3614760;80;25876;-54
2021/01/21 19:40:35;;;;;;;4.62;3.75;;;;;;;23.23;26.26;98548.64;3589434;81;25934;-50
2021/01/21 19:45:36;;;;;;;5.25;4.10;;;;;;;23.47;26.17;98543.87;3570638;81;26132;-52
2021/01/21 19:50:38;;;;;;;66.05;16.65;;;;;;;23.68;26.12;98539.56;3614078;79;25915;-56
2021/01/21 19:55:41;;;;;;;9.03;4.85;;;;;;;23.88;26.07;98541.01;3593735;79;25887;-54
2021/01/21 20:00:42;;;;;;;5.70;3.95;;;;;;;24.06;26.26;98548.48;3590426;80;26531;-58
2021/01/21 20:05:45;;;;;;;8.25;5.37;;;;;;;24.24;26.12;98546.73;3630169;79;25870;-58
2021/01/21 20:10:46;;;;;;;10.93;4.45;;;;;;;24.45;26.03;98540.47;3639905;80;25985;-54
2021/01/21 20:15:48;;;;;;;6.30;4.58;;;;;;;24.61;25.84;98539.05;3604908;79;64482;-52
2021/01/21 20:20:51;;;;;;;7.85;4.87;;;;;;;24.74;25.70;98534.48;3597473;79;25954;-51
2021/01/21 20:25:54;;;;;;;6.17;5.10;;;;;;;24.87;25.54;98535.13;3598996;78;25910;-63
2021/01/21 20:30:56;;;;;;;4.17;3.52;;;;;;;24.98;25.42;98539.47;3614990;78;25695;-60
2021/01/21 20:35:58;;;;;;;5.05;3.95;;;;;;;25.09;25.24;98528.97;3574899;78;25932;-63
2021/01/21 20:41:02;;;;;;;9.23;4.25;;;;;;;25.17;25.06;98526.60;3590682;79;25953;-64
2021/01/21 20:46:04;;;;;;;7.00;4.15;;;;;;;25.29;24.87;98531.12;3555678;80;26588;-60
2021/01/21 20:51:08;;;;;;;6.60;4.30;;;;;;;25.35;24.77;98535.71;3548154;80;25860;-60
2021/01/21 20:56:09;;;;;;;9.85;4.35;;;;;;;25.41;24.61;98536.39;3589936;80;26197;-59
2021/01/21 21:01:12;;;;;;;8.03;5.17;;;;;;;25.47;24.46;98539.62;3567713;80;26013;-63
2021/01/21 21:06:14;;;;;;;6.72;4.37;;;;;;;25.51;24.37;98539.11;3547122;80;26046;-62
2021/01/21 21:11:15;;;;;;;4.97;4.33;;;;;;;25.55;24.27;98540.55;3558911;80;25961;-64
2021/01/21 21:16:17;;;;;;;6.75;3.75;;;;;;;25.57;24.17;98528.69;3573949;81;26570;-62
2021/01/21 21:21:19;;;;;;;4.78;3.98;;;;;;;25.59;24.12;98524.45;3561580;81;25973;-63
2021/01/21 21:26:24;;;;;;;5.67;4.22;;;;;;;25.62;24.09;98523.73;3558760;80;25966;-63
2021/01/21 21:31:26;;;;;;;4.15;3.75;;;;;;;25.62;24.08;98533.28;3566298;80;25975;-60
2021/01/21 21:36:28;;;;;;;6.70;4.45;;;;;;;25.58;23.96;98535.16;3560456;80;25807;-61
2021/01/21 21:41:30;;;;;;;4.70;4.17;;;;;;;25.58;23.92;98525.60;3566825;79;26453;-61
2021/01/21 21:46:36;;;;;;;6.45;4.47;;;;;;;25.58;23.91;98510.59;3599500;79;26293;-61
2021/01/21 21:51:35;;;;;;;4.87;4.40;;;;;;;25.59;23.98;98508.66;3569165;80;26795;-62
2021/01/21 21:56:40;;;;;;;5.10;3.92;;;;;;;25.58;23.90;98510.59;3585938;80;26491;-61
2021/01/21 22:01:41;;;;;;;13.85;5.42;;;;;;;25.55;23.85;98514.05;3568574;80;25910;-59
2021/01/21 22:06:43;;;;;;;4.72;3.90;;;;;;;25.49;23.81;98507.31;3613213;78;25842;-63
2021/01/21 22:11:45;;;;;;;6.47;4.83;;;;;;;25.38;23.76;98524.84;3669385;79;26014;-61
2021/01/21 22:16:48;;;;;;;5.20;4.42;;;;;;;25.27;23.76;98522.51;3679748;79;26709;-62
2021/01/21 22:21:50;;;;;;;4.55;4.10;;;;;;;25.16;23.82;98518.78;3674485;79;26163;-62
2021/01/21 22:26:52;;;;;;;9.68;4.90;;;;;;;25.07;23.86;98511.42;3675641;79;26540;-50
2021/01/21 22:31:57;;;;;;;6.05;4.05;;;;;;;24.96;23.93;98509.05;3640815;79;26118;-49
2021/01/21 22:36:59;;;;;;;8.20;4.37;;;;;;;24.78;24.02;98505.92;3623017;79;26258;-60
2021/01/21 22:42:02;;;;;;;8.63;4.40;;;;;;;24.60;24.19;98509.64;3590442;80;25957;-65
2021/01/21 22:47:04;;;;;;;6.25;5.10;;;;;;;24.47;24.31;98504.89;3566853;81;25881;-66
2021/01/21 22:52:06;;;;;;;7.03;5.62;;;;;;;24.31;24.40;98494.63;3624568;79;25779;-65
2021/01/21 22:57:08;;;;;;;4.92;4.30;;;;;;;24.17;24.46;98491.54;3633964;79;25792;-65
2021/01/21 23:02:10;;;;;;;5.20;3.92;;;;;;;24.05;24.53;98488.38;3643707;79;27304;-66
2021/01/21 23:07:12;;;;;;;5.60;4.08;;;;;;;23.95;24.56;98490.84;3574373;80;26173;-66
2021/01/21 23:12:16;;;;;;;6.47;4.28;;;;;;;23.85;24.58;98495.66;3595929;79;26271;-66
2021/01/21 23:17:23;;;;;;;4.35;3.65;;;;;;;23.77;24.58;98480.91;3574004;80;26529;-66
2021/01/21 23:22:22;;;;;;;6.10;4.30;;;;;;;23.70;24.62;98480.72;3625073;80;26587;-66
2021/01/21 23:27:24;;;;;;;6.75;4.47;;;;;;;23.61;24.60;98482.25;3606820;79;25879;-66
2021/01/21 23:32:25;;;;;;;4.15;3.25;;;;;;;23.53;24.60;98468.84;3637389;79;26043;-66
2021/01/21 23:37:27;;;;;;;4.65;4.28;;;;;;;23.45;24.61;98460.47;3623552;79;30176;-68
2021/01/21 23:42:30;;;;;;;5.45;3.95;;;;;;;23.39;24.61;98465.16;3632124;79;26016;-66
2021/01/21 23:47:33;;;;;;;6.95;3.75;;;;;;;23.33;24.66;98455.67;3638155;79;26000;-63
2021/01/21 23:52:35;;;;;;;4.47;3.72;;;;;;;23.26;24.63;98453.55;3638831;79;25888;-66
2021/01/21 23:57:38;;;;;;;3.98;3.55;;;;;;;23.17;24.66;98453.73;3630029;79;25919;-66
